createdAt,value
2022-08-26T00:01:54.322Z,71.23
2022-08-26T00:04:23.462Z,70.81
2022-08-26T00:06:50.198Z,70.65
2022-08-26T00:09:16.967Z,70.69
2022-08-26T00:11:47.268Z,70.58
2022-08-26T00:14:14.784Z,70.83
2022-08-26T00:16:47.275Z,71.07
2022-08-26T00:19:18.806Z,70.73
2022-08-26T00:21:48.683Z,71.04
2022-08-26T00:24:15.968Z,70.68
2022-08-26T00:26:42.615Z,70.65
2022-08-26T00:29:09.596Z,70.67
2022-08-26T00:31:37.223Z,71.22
2022-08-26T00:34:04.360Z,71.92
2022-08-26T00:36:31.882Z,71.80
2022-08-26T00:38:58.736Z,71.99
2022-08-26T00:41:25.193Z,72.33
2022-08-26T00:43:53.143Z,72.55
2022-08-26T00:46:25.256Z,72.56
2022-08-26T00:48:58.981Z,72.60
2022-08-26T00:51:29.592Z,73.20
2022-08-26T00:54:07.349Z,73.40
2022-08-26T00:56:47.041Z,72.96
2022-08-26T01:01:59.220Z,73.24
2022-08-26T01:04:26.098Z,73.32
2022-08-26T01:06:53.952Z,73.67
2022-08-26T01:09:23.105Z,74.16
2022-08-26T01:11:53.005Z,73.66
2022-08-26T01:14:21.584Z,73.55
2022-08-26T01:16:49.166Z,73.30
2022-08-26T01:19:17.879Z,74.89
2022-08-26T01:21:51.944Z,76.12
2022-08-26T01:24:18.593Z,76.80
2022-08-26T01:26:45.635Z,76.52
2022-08-26T01:29:17.779Z,76.17
2022-08-26T01:31:52.205Z,74.94
2022-08-26T01:34:31.008Z,74.78
2022-08-26T01:37:33.920Z,75.43
2022-08-26T01:40:00.748Z,75.68
2022-08-26T01:42:28.545Z,75.80
2022-08-26T01:45:04.059Z,76.41
2022-08-26T01:47:33.171Z,76.19
2022-08-26T01:50:03.127Z,75.77
2022-08-26T01:52:33.514Z,76.23
2022-08-26T01:55:00.904Z,76.23
2022-08-26T01:57:28.958Z,76.52
2022-08-26T02:00:00.865Z,76.43
2022-08-26T02:02:27.836Z,76.04
2022-08-26T02:04:59.717Z,77.49
2022-08-26T02:07:27.596Z,77.10
2022-08-26T02:09:55.275Z,76.89
2022-08-26T02:12:22.934Z,76.77
2022-08-26T02:14:54.066Z,77.25
2022-08-26T02:17:26.486Z,77.68
2022-08-26T02:19:53.399Z,78.11
2022-08-26T02:22:22.538Z,78.29
2022-08-26T02:24:58.148Z,79.00
2022-08-26T02:27:32.205Z,78.82
2022-08-26T02:30:08.007Z,78.13
2022-08-26T02:32:34.514Z,78.24
2022-08-26T02:35:01.930Z,78.56
2022-08-26T02:37:31.115Z,78.66
2022-08-26T02:39:57.910Z,78.37
2022-08-26T02:42:24.407Z,77.73
2022-08-26T02:44:51.777Z,76.98
2022-08-26T02:47:18.426Z,76.53
2022-08-26T02:49:47.265Z,76.64
2022-08-26T02:52:13.976Z,76.19
2022-08-26T02:54:40.424Z,76.91
2022-08-26T02:57:07.009Z,77.62
2022-08-26T02:59:35.890Z,77.52
2022-08-26T03:02:03.038Z,77.67
2022-08-26T03:04:30.395Z,77.47
2022-08-26T03:06:59.933Z,78.20
2022-08-26T03:09:27.166Z,78.34
2022-08-26T03:11:55.419Z,78.68
2022-08-26T03:14:23.905Z,78.06
2022-08-26T03:16:52.249Z,78.15
2022-08-26T03:19:19.018Z,78.51
2022-08-26T03:21:47.235Z,79.37
2022-08-26T03:24:14.362Z,79.36
2022-08-26T03:26:40.875Z,79.93
2022-08-26T03:29:37.880Z,79.41
2022-08-26T03:32:06.203Z,79.43
2022-08-26T03:34:33.083Z,79.68
2022-08-26T03:36:59.651Z,79.93
2022-08-26T03:39:26.298Z,79.84
2022-08-26T03:41:53.654Z,79.58
2022-08-26T03:44:20.969Z,79.49
2022-08-26T03:46:47.597Z,79.68
2022-08-26T03:49:15.190Z,80.30
2022-08-26T03:51:42.118Z,80.34
2022-08-26T03:54:10.075Z,79.84
2022-08-26T03:56:37.061Z,79.98
2022-08-26T03:59:05.045Z,79.11
2022-08-26T04:01:34.580Z,79.26
2022-08-26T04:04:01.518Z,78.76
2022-08-26T04:06:34.164Z,78.55
2022-08-26T04:09:05.345Z,78.66
2022-08-26T04:11:34.661Z,78.95
2022-08-26T04:14:06.424Z,81.31
2022-08-26T04:16:34.291Z,82.15
2022-08-26T04:19:02.161Z,81.94
2022-08-26T04:21:28.999Z,82.77
2022-08-26T04:23:56.055Z,83.08
2022-08-26T04:26:25.569Z,81.82
2022-08-26T04:28:54.653Z,79.59
2022-08-26T04:31:21.448Z,78.25
2022-08-26T04:33:50.083Z,77.47
2022-08-26T04:36:17.649Z,78.11
2022-08-26T04:38:47.486Z,78.21
2022-08-26T04:41:15.504Z,78.42
2022-08-26T04:43:44.909Z,78.87
2022-08-26T04:46:13.692Z,78.63
2022-08-26T04:48:41.100Z,78.27
2022-08-26T04:51:09.099Z,78.48
2022-08-26T04:53:36.539Z,78.42
2022-08-26T04:56:03.927Z,79.20
2022-08-26T04:58:31.380Z,78.02
2022-08-26T05:00:58.457Z,78.03
2022-08-26T05:03:27.158Z,77.11
2022-08-26T05:05:54.139Z,78.34
2022-08-26T05:08:22.410Z,77.96
2022-08-26T05:10:51.741Z,77.12
2022-08-26T05:13:20.692Z,77.25
2022-08-26T05:15:48.125Z,76.94
2022-08-26T05:18:17.670Z,77.06
2022-08-26T05:20:48.840Z,76.13
2022-08-26T05:23:16.573Z,76.06
2022-08-26T05:25:46.989Z,75.81
2022-08-26T05:28:15.525Z,75.81
2022-08-26T05:30:42.590Z,75.54
2022-08-26T05:33:12.027Z,75.46
2022-08-26T05:35:39.177Z,74.72
2022-08-26T05:38:12.385Z,73.46
2022-08-26T05:40:42.805Z,71.99
2022-08-26T05:43:13.204Z,69.74
2022-08-26T05:45:46.151Z,64.92
2022-08-26T05:48:15.382Z,61.56
2022-08-26T05:50:45.756Z,58.73
2022-08-26T05:53:14.129Z,55.66
2022-08-26T05:55:49.124Z,52.96
2022-08-26T05:58:17.455Z,50.32
2022-08-26T06:00:44.553Z,50.37
2022-08-26T06:03:11.168Z,50.78
2022-08-26T06:05:41.968Z,50.23
2022-08-26T06:08:16.132Z,48.20
2022-08-26T06:10:50.921Z,47.00
2022-08-26T06:13:20.831Z,47.29
2022-08-26T06:15:50.077Z,47.46
2022-08-26T06:18:20.841Z,48.40
2022-08-26T06:20:54.626Z,48.59
2022-08-26T06:23:43.596Z,47.56
2022-08-26T06:26:11.431Z,46.26
2022-08-26T06:28:38.252Z,45.79
2022-08-26T06:31:07.760Z,45.76
2022-08-26T06:33:35.029Z,43.86
2022-08-26T06:36:02.210Z,42.54
2022-08-26T06:38:28.748Z,41.33
2022-08-26T06:40:55.442Z,40.30
2022-08-26T06:43:25.767Z,39.19
2022-08-26T06:45:59.698Z,38.60
2022-08-26T06:48:26.211Z,38.61
2022-08-26T06:51:03.358Z,39.35
2022-08-26T06:53:29.930Z,39.09
2022-08-26T06:55:56.443Z,39.11
2022-08-26T06:58:23.344Z,39.64
2022-08-26T07:00:51.086Z,38.82
2022-08-26T07:03:18.152Z,37.87
2022-08-26T07:05:44.793Z,37.85
2022-08-26T07:08:12.030Z,37.58
2022-08-26T07:10:38.766Z,36.92
2022-08-26T07:13:05.882Z,36.96
2022-08-26T07:15:36.082Z,36.56
2022-08-26T07:18:03.079Z,36.03
2022-08-26T07:20:29.529Z,35.33
2022-08-26T07:22:56.114Z,35.25
2022-08-26T07:25:22.732Z,35.01
2022-08-26T07:27:53.882Z,35.91
2022-08-26T07:30:21.305Z,34.77
2022-08-26T07:32:48.219Z,34.65
2022-08-26T07:35:14.836Z,34.99
2022-08-26T07:37:42.408Z,36.97
2022-08-26T07:40:12.853Z,35.53
2022-08-26T07:42:40.392Z,36.01
2022-08-26T07:45:09.365Z,35.70
2022-08-26T07:47:35.883Z,35.17
2022-08-26T07:50:02.596Z,40.84
2022-08-26T07:52:30.647Z,36.67
2022-08-26T07:54:59.248Z,35.68
2022-08-26T07:57:26.686Z,36.20
2022-08-26T07:59:55.234Z,35.86
2022-08-26T08:02:23.538Z,35.91
2022-08-26T08:04:51.690Z,36.79
2022-08-26T08:07:18.337Z,38.75
2022-08-26T08:09:45.238Z,37.91
2022-08-26T08:12:14.276Z,37.83
2022-08-26T08:14:41.146Z,37.27
2022-08-26T08:17:08.471Z,35.90
2022-08-26T08:19:37.043Z,35.97
2022-08-26T08:22:17.071Z,36.05
2022-08-26T08:24:45.080Z,33.95
2022-08-26T08:27:11.622Z,35.39
2022-08-26T08:29:38.580Z,34.73
2022-08-26T08:32:05.724Z,33.40
2022-08-26T08:34:38.287Z,34.60
2022-08-26T08:37:08.594Z,35.77
2022-08-26T08:39:36.649Z,34.11
2022-08-26T08:42:27.143Z,35.91
2022-08-26T08:44:58.439Z,35.81
2022-08-26T08:47:33.783Z,35.66
2022-08-26T08:50:25.077Z,37.46
2022-08-26T08:53:03.642Z,37.86
2022-08-26T08:55:57.924Z,37.58
2022-08-26T08:58:51.557Z,38.76
2022-08-26T09:01:42.109Z,37.07
2022-08-26T09:04:25.145Z,35.94
2022-08-26T09:06:55.673Z,36.07
2022-08-26T09:09:41.560Z,34.60
2022-08-26T09:12:13.501Z,34.30
2022-08-26T09:14:40.362Z,34.27
2022-08-26T09:17:26.268Z,34.09
2022-08-26T09:20:00.866Z,33.86
2022-08-26T09:22:32.965Z,33.22
2022-08-26T09:25:02.262Z,32.64
2022-08-26T09:27:50.513Z,31.85
2022-08-26T09:30:34.784Z,30.76
2022-08-26T09:33:10.797Z,30.48
2022-08-26T09:35:40.543Z,30.68
2022-08-26T09:38:32.805Z,31.33
2022-08-26T09:41:02.882Z,32.56
2022-08-26T09:43:32.766Z,33.44
2022-08-26T09:46:19.428Z,34.66
2022-08-26T09:48:46.331Z,35.53
2022-08-26T09:51:24.731Z,35.94
2022-08-26T09:53:57.026Z,34.84
2022-08-26T09:56:25.832Z,33.98
2022-08-26T09:58:56.044Z,33.57
2022-08-26T10:01:37.877Z,33.37
2022-08-26T10:04:15.655Z,32.96
2022-08-26T10:07:04.036Z,32.54
2022-08-26T10:09:37.232Z,31.95
2022-08-26T10:12:13.268Z,31.78
2022-08-26T10:15:01.801Z,31.07
2022-08-26T10:17:34.234Z,30.76
2022-08-26T10:20:32.830Z,30.02
2022-08-26T10:23:05.915Z,28.73
2022-08-26T10:25:42.508Z,27.93
2022-08-26T10:28:44.265Z,26.67
2022-08-26T10:31:27.896Z,25.75
2022-08-26T10:34:03.365Z,24.96
2022-08-26T10:39:45.055Z,25.12
2022-08-26T10:42:39.847Z,24.92
2022-08-26T10:45:22.569Z,27.68
2022-08-26T10:47:59.931Z,26.25
2022-08-26T10:50:39.279Z,24.91
2022-08-26T10:53:45.193Z,25.94
2022-08-26T10:56:33.435Z,24.99
2022-08-26T10:59:14.070Z,24.25
2022-08-26T11:01:57.416Z,24.20
2022-08-26T11:04:42.300Z,24.25
2022-08-26T11:07:48.694Z,23.65
2022-08-26T11:10:18.920Z,26.83
2022-08-26T11:12:49.375Z,25.40
2022-08-26T11:15:42.377Z,25.04
2022-08-26T11:18:35.532Z,23.17
2022-08-26T11:21:10.352Z,22.27
2022-08-26T11:23:50.695Z,22.46
2022-08-26T11:26:37.789Z,24.59
2022-08-26T11:29:59.310Z,25.15
2022-08-26T11:32:34.748Z,24.61
2022-08-26T11:35:21.807Z,24.46
2022-08-26T11:37:52.958Z,23.62
2022-08-26T11:40:41.190Z,24.68
2022-08-26T11:43:24.390Z,23.95
2022-08-26T11:46:09.249Z,23.38
2022-08-26T11:48:43.325Z,21.96
2022-08-26T11:51:25.174Z,21.16
2022-08-26T11:54:12.392Z,22.10
2022-08-26T11:56:41.947Z,22.00
2022-08-26T11:59:11.669Z,22.16
2022-08-26T12:01:44.994Z,23.86
2022-08-26T12:04:18.159Z,22.25
2022-08-26T12:06:53.434Z,21.00
2022-08-26T12:09:34.547Z,22.10
2022-08-26T12:12:42.411Z,21.99
2022-08-26T12:15:19.753Z,21.11
2022-08-26T12:17:53.519Z,20.85
2022-08-26T12:20:54.095Z,22.23
2022-08-26T12:23:30.873Z,22.87
2022-08-26T12:26:29.526Z,24.69
2022-08-26T12:28:58.033Z,23.93
2022-08-26T12:31:44.157Z,23.37
2022-08-26T12:34:17.938Z,23.56
2022-08-26T12:36:56.361Z,23.40
2022-08-26T12:39:29.074Z,24.09
2022-08-26T12:42:00.737Z,26.07
2022-08-26T12:44:42.394Z,29.39
2022-08-26T12:47:54.660Z,27.96
2022-08-26T12:50:29.001Z,27.38
2022-08-26T12:53:24.463Z,27.08
2022-08-26T12:56:00.111Z,26.71
2022-08-26T12:58:32.647Z,26.48
2022-08-26T13:01:06.234Z,26.21
2022-08-26T13:03:38.869Z,26.30
2022-08-26T13:06:31.082Z,26.97
2022-08-26T13:09:05.862Z,26.81
2022-08-26T13:11:39.820Z,26.83
2022-08-26T13:14:08.104Z,27.37
2022-08-26T13:16:36.823Z,28.42
2022-08-26T13:19:10.749Z,30.91
2022-08-26T13:21:47.781Z,34.64
2022-08-26T13:24:24.253Z,33.82
2022-08-26T13:26:51.225Z,36.28
2022-08-26T13:29:18.412Z,38.69
2022-08-26T13:31:46.284Z,40.87
2022-08-26T13:34:18.046Z,44.64
2022-08-26T13:36:45.249Z,46.86
2022-08-26T13:39:12.325Z,48.12
2022-08-26T13:41:38.778Z,48.93
2022-08-26T13:44:05.739Z,48.77
2022-08-26T13:46:32.659Z,48.92
2022-08-26T13:48:59.495Z,48.60
2022-08-26T13:51:27.894Z,48.55
2022-08-26T13:53:54.570Z,49.04
2022-08-26T13:56:21.545Z,49.54
2022-08-26T13:58:48.153Z,50.11
2022-08-26T14:01:16.283Z,50.95
2022-08-26T14:03:43.651Z,51.01
2022-08-26T14:06:10.432Z,51.32
2022-08-26T14:08:38.523Z,52.36
2022-08-26T14:11:05.248Z,54.11
2022-08-26T14:13:31.750Z,58.00
2022-08-26T14:16:01.365Z,57.96
2022-08-26T14:18:36.328Z,58.93
2022-08-26T14:21:06.202Z,58.81
2022-08-26T14:23:32.847Z,59.23
2022-08-26T14:26:00.011Z,59.82
2022-08-26T14:31:04.963Z,60.64
2022-08-26T14:33:38.534Z,61.14
2022-08-26T14:36:27.147Z,62.59
2022-08-26T14:38:58.342Z,64.34
2022-08-26T14:41:30.749Z,66.44
2022-08-26T14:44:13.543Z,65.25
2022-08-26T14:46:51.033Z,69.46
2022-08-26T14:49:19.058Z,70.14
2022-08-26T14:51:47.385Z,67.67
2022-08-26T14:54:16.139Z,68.06
2022-08-26T14:57:06.297Z,66.65
2022-08-26T14:59:42.961Z,67.06
2022-08-26T15:02:32.549Z,62.94
2022-08-26T15:05:02.220Z,57.96
2022-08-26T15:07:29.886Z,56.65
2022-08-26T15:09:58.208Z,55.94
2022-08-26T15:12:24.952Z,55.18
2022-08-26T15:15:03.161Z,54.18
2022-08-26T15:17:40.517Z,52.62
2022-08-26T15:20:11.188Z,51.59
2022-08-26T15:22:44.585Z,51.17
2022-08-26T15:25:15.039Z,48.55
2022-08-26T15:27:45.720Z,46.75
2022-08-26T15:30:12.868Z,43.88
2022-08-26T15:32:39.401Z,41.11
2022-08-26T15:35:09.057Z,40.25
2022-08-26T15:37:42.395Z,40.49
2022-08-26T15:40:09.863Z,40.18
2022-08-26T15:43:25.498Z,40.61
2022-08-26T15:45:55.888Z,38.50
2022-08-26T15:48:26.679Z,39.35
2022-08-26T15:50:57.609Z,40.90
2022-08-26T15:53:24.801Z,41.97
2022-08-26T15:55:54.836Z,41.85
2022-08-26T15:58:24.970Z,42.95
2022-08-26T16:01:00.099Z,43.07
2022-08-26T16:03:30.695Z,43.43
2022-08-26T16:05:57.196Z,43.71
2022-08-26T16:08:27.894Z,43.42
2022-08-26T16:10:56.598Z,44.15
2022-08-26T16:13:23.554Z,44.01
2022-08-26T16:15:50.721Z,44.44
2022-08-26T16:18:17.476Z,45.28
2022-08-26T16:21:08.779Z,45.29
2022-08-26T16:23:45.170Z,45.40
2022-08-26T16:26:25.935Z,45.68
2022-08-26T16:28:52.573Z,46.33
2022-08-26T16:31:21.295Z,47.35
2022-08-26T16:33:48.093Z,47.59
2022-08-26T16:36:15.040Z,47.52
2022-08-26T16:38:47.243Z,47.83
2022-08-26T16:41:16.275Z,47.66
2022-08-26T16:43:42.713Z,48.90
2022-08-26T16:46:11.271Z,49.06
2022-08-26T16:48:37.840Z,48.92
2022-08-26T16:51:09.998Z,52.34
2022-08-26T16:53:36.438Z,52.23
2022-08-26T16:56:03.270Z,51.86
2022-08-26T16:58:30.119Z,50.66
2022-08-26T17:00:59.783Z,50.91
2022-08-26T17:03:29.543Z,52.18
2022-08-26T17:05:56.055Z,52.76
2022-08-26T17:08:28.938Z,53.04
2022-08-26T17:10:56.266Z,52.36
2022-08-26T17:13:34.834Z,54.26
2022-08-26T17:16:06.212Z,52.91
2022-08-26T17:18:34.211Z,52.51
2022-08-26T17:21:03.915Z,53.12
2022-08-26T17:23:35.550Z,53.47
2022-08-26T17:26:04.376Z,53.77
2022-08-26T17:28:31.996Z,54.29
2022-08-26T17:30:59.450Z,54.90
2022-08-26T17:33:26.356Z,54.88
2022-08-26T17:35:55.898Z,56.18
2022-08-26T17:38:23.305Z,55.79
2022-08-26T17:40:50.291Z,55.41
2022-08-26T17:43:22.380Z,56.27
2022-08-26T17:45:51.828Z,56.83
2022-08-26T17:48:21.310Z,57.07
2022-08-26T17:50:49.705Z,56.62
2022-08-26T17:53:19.528Z,56.94
2022-08-26T17:55:48.217Z,57.38
2022-08-26T17:58:17.242Z,57.12
2022-08-26T18:00:54.467Z,56.67
2022-08-26T18:03:20.975Z,56.88
2022-08-26T18:05:53.465Z,56.83
2022-08-26T18:08:24.212Z,57.48
2022-08-26T18:10:50.892Z,57.61
2022-08-26T18:13:21.884Z,57.20
2022-08-26T18:15:48.368Z,57.22
2022-08-26T18:18:22.058Z,57.36
2022-08-26T18:21:01.363Z,57.76
2022-08-26T18:23:28.580Z,58.74
2022-08-26T18:26:00.999Z,58.62
2022-08-26T18:28:27.759Z,58.54
2022-08-26T18:30:54.285Z,58.58
2022-08-26T18:33:23.924Z,58.85
2022-08-26T18:35:50.369Z,58.53
2022-08-26T18:38:17.381Z,58.42
2022-08-26T18:40:45.583Z,58.72
2022-08-26T18:43:12.175Z,57.99
2022-08-26T18:45:38.624Z,58.50
2022-08-26T18:48:05.430Z,58.66
2022-08-26T18:50:31.999Z,58.53
2022-08-26T18:52:58.446Z,58.75
2022-08-26T18:55:25.355Z,59.36
2022-08-26T18:57:51.815Z,58.96
2022-08-26T19:00:18.302Z,59.27
2022-08-26T19:02:50.506Z,59.27
2022-08-26T19:05:19.353Z,59.00
2022-08-26T19:07:46.152Z,59.47
2022-08-26T19:10:14.922Z,59.49
2022-08-26T19:12:42.369Z,60.08
2022-08-26T19:15:10.866Z,60.72
2022-08-26T19:17:37.414Z,60.72
2022-08-26T19:20:05.121Z,61.04
2022-08-26T19:22:31.770Z,61.05
2022-08-26T19:24:58.199Z,60.94
2022-08-26T19:27:24.701Z,61.58
2022-08-26T19:29:51.203Z,61.24
2022-08-26T19:32:18.033Z,61.05
2022-08-26T19:34:44.489Z,60.70
2022-08-26T19:37:11.226Z,61.22
2022-08-26T19:39:37.781Z,60.96
2022-08-26T19:42:04.458Z,60.97
2022-08-26T19:44:49.336Z,60.88
2022-08-26T19:47:15.903Z,61.49
2022-08-26T19:49:42.489Z,62.04
2022-08-26T19:52:11.023Z,61.98
2022-08-26T19:54:38.309Z,61.27
2022-08-26T19:57:05.233Z,61.66
2022-08-26T19:59:33.079Z,61.39
2022-08-26T20:02:00.434Z,61.68
2022-08-26T20:04:28.940Z,61.80
2022-08-26T20:06:57.732Z,61.85
2022-08-26T20:09:27.217Z,61.95
2022-08-26T20:11:54.021Z,61.72
2022-08-26T20:14:23.488Z,62.63
2022-08-26T20:16:50.040Z,62.53
2022-08-26T20:19:37.468Z,64.06
2022-08-26T20:22:07.736Z,63.70
2022-08-26T20:24:35.525Z,64.77
2022-08-26T20:27:07.253Z,63.76
2022-08-26T20:29:38.213Z,63.43
2022-08-26T20:32:07.720Z,62.97
2022-08-26T20:34:35.688Z,63.59
2022-08-26T20:37:03.079Z,63.95
2022-08-26T20:39:29.797Z,63.67
2022-08-26T20:41:57.233Z,63.92
2022-08-26T20:44:24.421Z,64.37
2022-08-26T20:46:51.337Z,64.09
2022-08-26T20:49:18.582Z,64.57
2022-08-26T20:51:48.108Z,64.00
2022-08-26T20:56:40.977Z,63.66
2022-08-26T20:59:08.028Z,63.70
2022-08-26T21:01:36.252Z,63.70
2022-08-26T21:04:06.669Z,63.57
2022-08-26T21:06:34.006Z,63.29
2022-08-26T21:09:02.213Z,63.92
2022-08-26T21:11:29.190Z,64.55
2022-08-26T21:14:07.508Z,65.45
2022-08-26T21:16:43.389Z,65.55
2022-08-26T21:19:12.407Z,65.04
2022-08-26T21:21:40.613Z,64.51
2022-08-26T21:24:07.296Z,65.30
2022-08-26T21:26:33.749Z,64.82
2022-08-26T21:29:01.204Z,64.91
2022-08-26T21:31:29.565Z,64.60
2022-08-26T21:33:56.040Z,65.20
2022-08-26T21:36:22.477Z,65.05
2022-08-26T21:38:48.890Z,65.49
2022-08-26T21:41:19.766Z,64.96
2022-08-26T21:43:48.334Z,65.82
2022-08-26T21:46:19.318Z,65.95
2022-08-26T21:48:58.380Z,65.69
2022-08-26T21:51:27.752Z,66.02
2022-08-26T21:53:56.229Z,66.00
2022-08-26T21:56:25.768Z,66.18
2022-08-26T21:58:53.625Z,66.11
2022-08-26T22:01:22.237Z,65.78
2022-08-26T22:03:49.851Z,66.05
2022-08-26T22:06:18.346Z,66.16
2022-08-26T22:08:44.801Z,66.00
2022-08-26T22:11:12.144Z,65.87
2022-08-26T22:13:40.767Z,65.70
2022-08-26T22:16:08.228Z,65.96
2022-08-26T22:18:35.832Z,66.28
2022-08-26T22:21:06.609Z,66.46
2022-08-26T22:23:34.412Z,66.82
2022-08-26T22:26:01.241Z,66.48
2022-08-26T22:28:28.280Z,66.59
2022-08-26T22:30:55.605Z,67.14
2022-08-26T22:33:23.093Z,66.90
2022-08-26T22:35:51.300Z,67.14
2022-08-26T22:38:18.388Z,67.03
2022-08-26T22:40:47.692Z,67.09
2022-08-26T22:43:14.338Z,67.00
2022-08-26T22:45:43.430Z,67.26
2022-08-26T22:48:11.776Z,67.36
2022-08-26T22:50:38.506Z,67.43
2022-08-26T22:53:04.969Z,67.75
2022-08-26T22:55:31.456Z,67.54
2022-08-26T22:57:57.985Z,67.47
2022-08-26T23:00:32.035Z,67.55
2022-08-26T23:02:59.075Z,67.42
2022-08-26T23:05:25.612Z,67.55
2022-08-26T23:07:52.136Z,67.79
2022-08-26T23:10:18.689Z,68.06
2022-08-26T23:12:45.181Z,68.21
2022-08-26T23:15:12.622Z,68.23
2022-08-26T23:17:39.648Z,68.35
2022-08-26T23:20:10.132Z,68.23
2022-08-26T23:22:37.084Z,68.46
2022-08-26T23:25:07.729Z,68.20
2022-08-26T23:27:39.987Z,68.45
2022-08-26T23:30:12.045Z,68.48
2022-08-26T23:32:38.911Z,68.13
2022-08-26T23:35:06.623Z,67.87
2022-08-26T23:37:36.946Z,68.10
2022-08-26T23:40:12.516Z,67.85
2022-08-26T23:42:39.462Z,68.04
2022-08-26T23:45:08.131Z,68.31
2022-08-26T23:47:34.695Z,68.25
2022-08-26T23:50:01.187Z,68.84
2022-08-26T23:52:46.994Z,68.47
2022-08-26T23:55:14.353Z,68.82
2022-08-26T23:57:41.334Z,69.33
